sensor_id;sensor_type;location;lat;lon;timestamp;pressure;altitude;pressure_sealevel;temperature;humidity
35419;BME280;21525;41.240;16.500;2023-06-22T00:00:41;101527.56;;;32.47;45.17
35419;BME280;21525;41.240;16.500;2023-06-22T00:03:07;101523.44;;;32.43;45.49
35419;BME280;21525;41.240;16.500;2023-06-22T00:05:33;101525.69;;;32.57;45.70
35419;BME280;21525;41.240;16.500;2023-06-22T00:08:01;101528.81;;;32.53;45.41
35419;BME280;21525;41.240;16.500;2023-06-22T00:10:27;101525.44;;;32.41;45.61
35419;BME280;21525;41.240;16.500;2023-06-22T00:12:52;101519.59;;;32.55;45.16
35419;BME280;21525;41.240;16.500;2023-06-22T00:15:18;101521.19;;;32.48;45.36
35419;BME280;21525;41.240;16.500;2023-06-22T00:17:44;101518.03;;;32.53;45.10
35419;BME280;21525;41.240;16.500;2023-06-22T00:20:09;101530.38;;;32.36;45.62
35419;BME280;21525;41.240;16.500;2023-06-22T00:22:35;101533.72;;;32.19;45.82
35419;BME280;21525;41.240;16.500;2023-06-22T00:25:05;101522.03;;;32.39;45.84
35419;BME280;21525;41.240;16.500;2023-06-22T00:27:31;101522.72;;;32.31;45.93
35419;BME280;21525;41.240;16.500;2023-06-22T00:29:58;101528.81;;;32.24;46.02
35419;BME280;21525;41.240;16.500;2023-06-22T00:32:23;101524.81;;;32.09;46.33
35419;BME280;21525;41.240;16.500;2023-06-22T00:34:49;101528.22;;;32.01;46.16
35419;BME280;21525;41.240;16.500;2023-06-22T00:37:15;101531.72;;;31.92;46.31
35419;BME280;21525;41.240;16.500;2023-06-22T00:39:42;101521.13;;;32.19;45.84
35419;BME280;21525;41.240;16.500;2023-06-22T00:42:08;101519.28;;;32.20;45.92
35419;BME280;21525;41.240;16.500;2023-06-22T00:44:34;101521.00;;;32.21;45.87
35419;BME280;21525;41.240;16.500;2023-06-22T00:47:00;101521.44;;;32.16;45.91
35419;BME280;21525;41.240;16.500;2023-06-22T00:49:26;101530.06;;;32.10;46.11
35419;BME280;21525;41.240;16.500;2023-06-22T00:51:52;101533.88;;;31.98;46.22
35419;BME280;21525;41.240;16.500;2023-06-22T00:54:17;101535.56;;;31.99;46.25
35419;BME280;21525;41.240;16.500;2023-06-22T00:56:51;101529.94;;;32.12;46.26
35419;BME280;21525;41.240;16.500;2023-06-22T00:59:18;101537.41;;;31.98;46.69
35419;BME280;21525;41.240;16.500;2023-06-22T01:01:44;101541.78;;;31.80;46.71
35419;BME280;21525;41.240;16.500;2023-06-22T01:04:10;101546.19;;;32.00;46.47
35419;BME280;21525;41.240;16.500;2023-06-22T01:06:42;101543.22;;;32.03;45.79
35419;BME280;21525;41.240;16.500;2023-06-22T01:09:15;101542.06;;;31.96;45.93
35419;BME280;21525;41.240;16.500;2023-06-22T01:11:45;101550.31;;;32.04;45.84
35419;BME280;21525;41.240;16.500;2023-06-22T01:14:19;101549.47;;;32.04;45.77
35419;BME280;21525;41.240;16.500;2023-06-22T01:16:47;101549.75;;;32.11;45.35
35419;BME280;21525;41.240;16.500;2023-06-22T01:21:39;101551.88;;;32.07;45.54
35419;BME280;21525;41.240;16.500;2023-06-22T01:24:18;101548.47;;;32.05;45.73
35419;BME280;21525;41.240;16.500;2023-06-22T01:29:18;101552.72;;;32.08;46.61
35419;BME280;21525;41.240;16.500;2023-06-22T01:31:47;101543.22;;;32.03;46.72
35419;BME280;21525;41.240;16.500;2023-06-22T01:34:14;101534.19;;;32.14;46.86
35419;BME280;21525;41.240;16.500;2023-06-22T01:36:41;101542.94;;;32.06;47.11
35419;BME280;21525;41.240;16.500;2023-06-22T01:39:08;101539.06;;;31.90;47.35
35419;BME280;21525;41.240;16.500;2023-06-22T01:41:35;101538.38;;;31.97;47.02
35419;BME280;21525;41.240;16.500;2023-06-22T01:44:02;101542.41;;;32.13;46.76
35419;BME280;21525;41.240;16.500;2023-06-22T01:46:28;101546.19;;;32.00;47.01
35419;BME280;21525;41.240;16.500;2023-06-22T01:48:54;101537.78;;;31.75;47.15
35419;BME280;21525;41.240;16.500;2023-06-22T01:51:21;101544.63;;;31.98;47.25
35419;BME280;21525;41.240;16.500;2023-06-22T01:53:47;101540.81;;;31.60;47.46
35419;BME280;21525;41.240;16.500;2023-06-22T01:56:15;101537.25;;;31.81;46.94
35419;BME280;21525;41.240;16.500;2023-06-22T01:58:45;101541.47;;;31.73;47.32
35419;BME280;21525;41.240;16.500;2023-06-22T02:01:12;101538.97;;;31.51;47.78
35419;BME280;21525;41.240;16.500;2023-06-22T02:03:50;101534.84;;;31.57;47.94
35419;BME280;21525;41.240;16.500;2023-06-22T02:06:30;101531.44;;;31.55;47.76
35419;BME280;21525;41.240;16.500;2023-06-22T02:09:01;101519.88;;;31.64;47.50
35419;BME280;21525;41.240;16.500;2023-06-22T02:11:27;101522.66;;;31.43;48.13
35419;BME280;21525;41.240;16.500;2023-06-22T02:13:54;101515.16;;;31.47;48.41
35419;BME280;21525;41.240;16.500;2023-06-22T02:16:21;101513.09;;;31.29;48.55
35419;BME280;21525;41.240;16.500;2023-06-22T02:18:47;101505.97;;;30.98;49.30
35419;BME280;21525;41.240;16.500;2023-06-22T02:21:16;101509.06;;;31.45;48.90
35419;BME280;21525;41.240;16.500;2023-06-22T02:23:42;101493.44;;;31.29;48.88
35419;BME280;21525;41.240;16.500;2023-06-22T02:26:07;101509.72;;;31.06;49.71
35419;BME280;21525;41.240;16.500;2023-06-22T02:28:33;101511.13;;;31.31;48.98
35419;BME280;21525;41.240;16.500;2023-06-22T02:30:59;101501.94;;;31.34;48.89
35419;BME280;21525;41.240;16.500;2023-06-22T02:33:25;101505.56;;;31.23;48.95
35419;BME280;21525;41.240;16.500;2023-06-22T02:35:50;101509.25;;;31.22;49.14
35419;BME280;21525;41.240;16.500;2023-06-22T02:38:16;101499.78;;;31.28;48.71
35419;BME280;21525;41.240;16.500;2023-06-22T02:40:43;101508.19;;;31.34;48.83
35419;BME280;21525;41.240;16.500;2023-06-22T02:43:09;101501.81;;;31.35;48.78
35419;BME280;21525;41.240;16.500;2023-06-22T02:45:35;101503.34;;;31.28;48.81
35419;BME280;21525;41.240;16.500;2023-06-22T02:48:01;101513.41;;;31.36;48.93
35419;BME280;21525;41.240;16.500;2023-06-22T02:50:27;101505.66;;;31.43;48.66
35419;BME280;21525;41.240;16.500;2023-06-22T02:52:53;101509.81;;;31.26;49.10
35419;BME280;21525;41.240;16.500;2023-06-22T02:55:19;101515.69;;;31.40;48.79
35419;BME280;21525;41.240;16.500;2023-06-22T02:57:52;101513.47;;;31.46;48.72
35419;BME280;21525;41.240;16.500;2023-06-22T03:00:19;101512.69;;;31.34;49.13
35419;BME280;21525;41.240;16.500;2023-06-22T03:02:47;101502.31;;;31.50;48.83
35419;BME280;21525;41.240;16.500;2023-06-22T03:05:15;101512.19;;;31.19;49.36
35419;BME280;21525;41.240;16.500;2023-06-22T03:07:44;101509.44;;;31.30;49.29
35419;BME280;21525;41.240;16.500;2023-06-22T03:10:10;101526.34;;;31.21;49.23
35419;BME280;21525;41.240;16.500;2023-06-22T03:12:37;101527.16;;;31.43;48.83
35419;BME280;21525;41.240;16.500;2023-06-22T03:15:04;101527.03;;;31.14;49.56
35419;BME280;21525;41.240;16.500;2023-06-22T03:17:30;101528.28;;;31.40;48.71
35419;BME280;21525;41.240;16.500;2023-06-22T03:19:55;101523.66;;;31.21;49.34
35419;BME280;21525;41.240;16.500;2023-06-22T03:22:21;101535.84;;;31.25;49.12
35419;BME280;21525;41.240;16.500;2023-06-22T03:24:48;101528.50;;;31.27;49.31
35419;BME280;21525;41.240;16.500;2023-06-22T03:27:14;101530.59;;;31.14;49.41
35419;BME280;21525;41.240;16.500;2023-06-22T03:29:40;101530.53;;;31.35;49.24
35419;BME280;21525;41.240;16.500;2023-06-22T03:32:06;101536.38;;;31.19;49.60
35419;BME280;21525;41.240;16.500;2023-06-22T03:34:32;101532.44;;;31.23;49.40
35419;BME280;21525;41.240;16.500;2023-06-22T03:36:59;101535.31;;;31.31;49.20
35419;BME280;21525;41.240;16.500;2023-06-22T03:39:25;101528.16;;;31.42;49.23
35419;BME280;21525;41.240;16.500;2023-06-22T03:41:51;101525.34;;;31.43;48.95
35419;BME280;21525;41.240;16.500;2023-06-22T03:44:17;101537.03;;;31.32;48.90
35419;BME280;21525;41.240;16.500;2023-06-22T03:46:42;101533.41;;;31.53;48.55
35419;BME280;21525;41.240;16.500;2023-06-22T03:49:08;101537.59;;;31.36;48.71
35419;BME280;21525;41.240;16.500;2023-06-22T03:51:33;101533.25;;;31.85;47.72
35419;BME280;21525;41.240;16.500;2023-06-22T03:53:59;101536.50;;;31.69;48.02
35419;BME280;21525;41.240;16.500;2023-06-22T03:56:25;101535.25;;;31.83;47.67
35419;BME280;21525;41.240;16.500;2023-06-22T03:58:51;101534.28;;;31.93;47.51
35419;BME280;21525;41.240;16.500;2023-06-22T04:01:16;101530.91;;;32.11;47.04
35419;BME280;21525;41.240;16.500;2023-06-22T04:03:42;101530.78;;;32.12;47.12
35419;BME280;21525;41.240;16.500;2023-06-22T04:06:08;101517.34;;;32.22;47.02
35419;BME280;21525;41.240;16.500;2023-06-22T04:08:34;101519.41;;;32.95;45.34
35419;BME280;21525;41.240;16.500;2023-06-22T04:10:59;101513.75;;;32.89;45.25
35419;BME280;21525;41.240;16.500;2023-06-22T04:13:25;101522.47;;;33.20;44.87
35419;BME280;21525;41.240;16.500;2023-06-22T04:15:50;101512.81;;;33.54;44.36
35419;BME280;21525;41.240;16.500;2023-06-22T04:18:16;101517.50;;;34.07;43.17
35419;BME280;21525;41.240;16.500;2023-06-22T04:20:41;101522.97;;;34.15;42.57
35419;BME280;21525;41.240;16.500;2023-06-22T04:23:07;101522.50;;;34.73;41.96
35419;BME280;21525;41.240;16.500;2023-06-22T04:25:33;101521.25;;;34.42;42.29
35419;BME280;21525;41.240;16.500;2023-06-22T04:27:59;101521.97;;;34.69;41.91
35419;BME280;21525;41.240;16.500;2023-06-22T04:30:24;101515.66;;;35.05;41.15
35419;BME280;21525;41.240;16.500;2023-06-22T04:32:50;101505.19;;;35.35;40.90
35419;BME280;21525;41.240;16.500;2023-06-22T04:35:23;101516.25;;;36.00;39.96
35419;BME280;21525;41.240;16.500;2023-06-22T04:37:49;101515.59;;;36.39;39.12
35419;BME280;21525;41.240;16.500;2023-06-22T04:40:15;101517.25;;;37.05;38.31
35419;BME280;21525;41.240;16.500;2023-06-22T04:42:41;101517.25;;;37.21;38.03
35419;BME280;21525;41.240;16.500;2023-06-22T04:45:18;101521.69;;;37.53;37.06
35419;BME280;21525;41.240;16.500;2023-06-22T04:47:44;101526.00;;;37.79;36.57
35419;BME280;21525;41.240;16.500;2023-06-22T04:50:13;101523.75;;;38.36;36.36
35419;BME280;21525;41.240;16.500;2023-06-22T04:52:39;101522.31;;;38.25;36.73
35419;BME280;21525;41.240;16.500;2023-06-22T04:55:05;101531.69;;;37.53;37.70
35419;BME280;21525;41.240;16.500;2023-06-22T04:57:31;101534.25;;;36.91;38.75
35419;BME280;21525;41.240;16.500;2023-06-22T04:59:59;101527.47;;;36.87;38.92
35419;BME280;21525;41.240;16.500;2023-06-22T05:02:37;101520.78;;;37.14;38.80
35419;BME280;21525;41.240;16.500;2023-06-22T05:05:02;101532.03;;;36.86;39.33
35419;BME280;21525;41.240;16.500;2023-06-22T05:07:35;101527.13;;;36.98;39.15
35419;BME280;21525;41.240;16.500;2023-06-22T05:10:01;101529.69;;;37.47;39.07
35419;BME280;21525;41.240;16.500;2023-06-22T05:12:27;101522.72;;;37.52;38.77
35419;BME280;21525;41.240;16.500;2023-06-22T05:14:54;101526.16;;;37.77;38.44
35419;BME280;21525;41.240;16.500;2023-06-22T05:17:19;101533.22;;;38.40;38.15
35419;BME280;21525;41.240;16.500;2023-06-22T05:19:45;101535.72;;;38.27;38.01
35419;BME280;21525;41.240;16.500;2023-06-22T05:22:16;101542.50;;;38.31;38.46
35419;BME280;21525;41.240;16.500;2023-06-22T05:24:42;101543.19;;;38.48;38.06
35419;BME280;21525;41.240;16.500;2023-06-22T05:27:08;101543.34;;;38.31;38.05
35419;BME280;21525;41.240;16.500;2023-06-22T05:29:34;101545.59;;;38.43;37.96
35419;BME280;21525;41.240;16.500;2023-06-22T05:32:00;101555.69;;;38.34;38.22
35419;BME280;21525;41.240;16.500;2023-06-22T05:34:26;101554.19;;;38.54;38.33
35419;BME280;21525;41.240;16.500;2023-06-22T05:36:52;101558.81;;;39.06;38.08
35419;BME280;21525;41.240;16.500;2023-06-22T05:39:17;101556.03;;;38.77;38.25
35419;BME280;21525;41.240;16.500;2023-06-22T05:41:46;101563.50;;;38.97;37.85
35419;BME280;21525;41.240;16.500;2023-06-22T05:44:11;101561.25;;;39.01;37.91
35419;BME280;21525;41.240;16.500;2023-06-22T05:46:40;101565.94;;;38.92;38.02
35419;BME280;21525;41.240;16.500;2023-06-22T05:49:10;101561.00;;;39.40;37.39
35419;BME280;21525;41.240;16.500;2023-06-22T05:51:35;101575.34;;;39.34;37.61
35419;BME280;21525;41.240;16.500;2023-06-22T05:54:01;101574.16;;;38.84;38.16
35419;BME280;21525;41.240;16.500;2023-06-22T05:56:26;101577.84;;;38.69;39.66
35419;BME280;21525;41.240;16.500;2023-06-22T05:58:52;101582.03;;;38.56;40.08
35419;BME280;21525;41.240;16.500;2023-06-22T06:01:18;101571.81;;;38.81;39.78
35419;BME280;21525;41.240;16.500;2023-06-22T06:03:43;101572.81;;;39.03;39.31
35419;BME280;21525;41.240;16.500;2023-06-22T06:06:09;101569.94;;;38.82;40.11
35419;BME280;21525;41.240;16.500;2023-06-22T06:08:36;101568.25;;;38.81;40.16
35419;BME280;21525;41.240;16.500;2023-06-22T06:11:02;101571.66;;;38.97;41.17
35419;BME280;21525;41.240;16.500;2023-06-22T06:13:28;101578.41;;;39.02;41.27
35419;BME280;21525;41.240;16.500;2023-06-22T06:15:53;101580.06;;;39.25;40.28
35419;BME280;21525;41.240;16.500;2023-06-22T06:18:20;101582.03;;;39.61;40.03
35419;BME280;21525;41.240;16.500;2023-06-22T06:20:46;101582.38;;;39.43;40.51
35419;BME280;21525;41.240;16.500;2023-06-22T06:23:11;101581.88;;;39.48;40.00
35419;BME280;21525;41.240;16.500;2023-06-22T06:25:37;101577.13;;;39.86;39.51
35419;BME280;21525;41.240;16.500;2023-06-22T06:28:03;101571.25;;;40.04;39.32
35419;BME280;21525;41.240;16.500;2023-06-22T06:30:28;101568.03;;;40.15;39.00
35419;BME280;21525;41.240;16.500;2023-06-22T06:32:54;101569.84;;;40.29;38.95
35419;BME280;21525;41.240;16.500;2023-06-22T06:35:21;101569.34;;;40.61;38.24
35419;BME280;21525;41.240;16.500;2023-06-22T06:37:47;101576.56;;;40.26;38.50
35419;BME280;21525;41.240;16.500;2023-06-22T06:40:13;101576.56;;;40.48;38.21
35419;BME280;21525;41.240;16.500;2023-06-22T06:42:43;101567.16;;;40.50;38.05
35419;BME280;21525;41.240;16.500;2023-06-22T06:45:11;101573.53;;;40.57;37.45
35419;BME280;21525;41.240;16.500;2023-06-22T06:47:37;101574.47;;;40.92;37.12
35419;BME280;21525;41.240;16.500;2023-06-22T06:50:04;101579.78;;;41.07;37.00
35419;BME280;21525;41.240;16.500;2023-06-22T06:52:30;101590.56;;;40.87;36.98
35419;BME280;21525;41.240;16.500;2023-06-22T06:54:55;101585.94;;;40.67;37.56
35419;BME280;21525;41.240;16.500;2023-06-22T06:57:21;101599.66;;;39.36;40.27
35419;BME280;21525;41.240;16.500;2023-06-22T06:59:48;101598.50;;;38.78;41.43
35419;BME280;21525;41.240;16.500;2023-06-22T07:02:14;101602.66;;;37.89;44.19
35419;BME280;21525;41.240;16.500;2023-06-22T07:04:40;101598.03;;;37.50;45.71
35419;BME280;21525;41.240;16.500;2023-06-22T07:07:06;101588.09;;;37.26;47.58
35419;BME280;21525;41.240;16.500;2023-06-22T07:09:32;101597.44;;;37.24;48.04
35419;BME280;21525;41.240;16.500;2023-06-22T07:11:58;101592.50;;;37.11;48.69
35419;BME280;21525;41.240;16.500;2023-06-22T07:14:23;101590.75;;;37.43;48.01
35419;BME280;21525;41.240;16.500;2023-06-22T07:16:49;101592.53;;;36.87;49.04
35419;BME280;21525;41.240;16.500;2023-06-22T07:19:15;101588.44;;;37.07;49.13
35419;BME280;21525;41.240;16.500;2023-06-22T07:21:40;101584.06;;;38.54;45.79
35419;BME280;21525;41.240;16.500;2023-06-22T07:24:06;101568.50;;;39.09;44.46
35419;BME280;21525;41.240;16.500;2023-06-22T07:26:32;101577.34;;;39.25;43.92
35419;BME280;21525;41.240;16.500;2023-06-22T07:28:58;101571.72;;;38.29;45.71
35419;BME280;21525;41.240;16.500;2023-06-22T07:31:26;101568.72;;;38.16;46.16
35419;BME280;21525;41.240;16.500;2023-06-22T07:33:52;101566.09;;;38.91;44.65
35419;BME280;21525;41.240;16.500;2023-06-22T07:36:17;101570.38;;;38.25;45.47
35419;BME280;21525;41.240;16.500;2023-06-22T07:38:43;101567.97;;;37.68;47.07
35419;BME280;21525;41.240;16.500;2023-06-22T07:41:09;101574.16;;;38.99;44.70
35419;BME280;21525;41.240;16.500;2023-06-22T07:43:34;101570.59;;;38.84;43.56
35419;BME280;21525;41.240;16.500;2023-06-22T07:46:02;101580.00;;;38.96;44.14
35419;BME280;21525;41.240;16.500;2023-06-22T07:48:28;101584.19;;;38.84;44.28
35419;BME280;21525;41.240;16.500;2023-06-22T07:50:54;101583.78;;;37.48;47.94
35419;BME280;21525;41.240;16.500;2023-06-22T07:53:20;101591.38;;;36.15;53.03
35419;BME280;21525;41.240;16.500;2023-06-22T07:55:46;101596.88;;;36.31;52.10
35419;BME280;21525;41.240;16.500;2023-06-22T07:58:11;101594.16;;;37.37;50.17
35419;BME280;21525;41.240;16.500;2023-06-22T08:00:37;101592.50;;;37.83;49.43
35419;BME280;21525;41.240;16.500;2023-06-22T08:03:03;101600.13;;;36.67;51.93
35419;BME280;21525;41.240;16.500;2023-06-22T08:05:30;101600.25;;;36.41;53.35
35419;BME280;21525;41.240;16.500;2023-06-22T08:07:57;101596.03;;;36.47;52.50
35419;BME280;21525;41.240;16.500;2023-06-22T08:10:22;101588.94;;;37.27;51.03
35419;BME280;21525;41.240;16.500;2023-06-22T08:12:48;101580.13;;;38.34;47.98
35419;BME280;21525;41.240;16.500;2023-06-22T08:15:14;101586.97;;;38.53;47.40
35419;BME280;21525;41.240;16.500;2023-06-22T08:17:39;101586.16;;;39.27;44.78
35419;BME280;21525;41.240;16.500;2023-06-22T08:20:06;101584.69;;;39.54;44.04
35419;BME280;21525;41.240;16.500;2023-06-22T08:22:35;101585.88;;;39.67;42.98
35419;BME280;21525;41.240;16.500;2023-06-22T08:25:02;101582.00;;;39.76;42.57
35419;BME280;21525;41.240;16.500;2023-06-22T08:27:30;101586.75;;;40.03;42.13
35419;BME280;21525;41.240;16.500;2023-06-22T08:29:59;101593.31;;;39.58;42.17
35419;BME280;21525;41.240;16.500;2023-06-22T08:32:28;101594.66;;;38.72;44.41
35419;BME280;21525;41.240;16.500;2023-06-22T08:34:54;101587.75;;;38.84;45.28
35419;BME280;21525;41.240;16.500;2023-06-22T08:37:20;101595.28;;;38.59;44.80
35419;BME280;21525;41.240;16.500;2023-06-22T08:39:46;101594.84;;;38.25;46.43
35419;BME280;21525;41.240;16.500;2023-06-22T08:42:12;101595.63;;;38.34;46.62
35419;BME280;21525;41.240;16.500;2023-06-22T08:44:37;101598.88;;;38.75;45.13
35419;BME280;21525;41.240;16.500;2023-06-22T08:47:03;101607.75;;;37.04;48.46
35419;BME280;21525;41.240;16.500;2023-06-22T08:49:29;101614.38;;;36.85;49.43
35419;BME280;21525;41.240;16.500;2023-06-22T08:51:54;101604.13;;;37.44;48.44
35419;BME280;21525;41.240;16.500;2023-06-22T08:54:22;101604.41;;;38.05;47.07
35419;BME280;21525;41.240;16.500;2023-06-22T08:56:47;101608.56;;;37.37;49.46
35419;BME280;21525;41.240;16.500;2023-06-22T08:59:14;101604.13;;;37.44;50.22
35419;BME280;21525;41.240;16.500;2023-06-22T09:01:40;101607.63;;;37.69;49.16
35419;BME280;21525;41.240;16.500;2023-06-22T09:04:06;101620.97;;;37.15;50.51
35419;BME280;21525;41.240;16.500;2023-06-22T09:06:34;101622.47;;;36.53;53.62
35419;BME280;21525;41.240;16.500;2023-06-22T09:09:00;101628.59;;;35.37;60.79
35419;BME280;21525;41.240;16.500;2023-06-22T09:11:26;101627.81;;;34.83;63.45
35419;BME280;21525;41.240;16.500;2023-06-22T09:13:51;101628.91;;;35.16;63.15
35419;BME280;21525;41.240;16.500;2023-06-22T09:16:19;101621.66;;;36.68;58.56
35419;BME280;21525;41.240;16.500;2023-06-22T09:18:47;101632.09;;;36.31;59.08
35419;BME280;21525;41.240;16.500;2023-06-22T09:21:13;101629.22;;;35.90;59.90
35419;BME280;21525;41.240;16.500;2023-06-22T09:23:39;101633.16;;;35.36;63.00
35419;BME280;21525;41.240;16.500;2023-06-22T09:26:05;101622.28;;;35.10;66.14
35419;BME280;21525;41.240;16.500;2023-06-22T09:28:30;101629.69;;;35.52;63.10
35419;BME280;21525;41.240;16.500;2023-06-22T09:30:56;101634.88;;;35.45;63.28
35419;BME280;21525;41.240;16.500;2023-06-22T09:33:24;101634.75;;;35.03;63.12
35419;BME280;21525;41.240;16.500;2023-06-22T09:35:49;101635.44;;;35.05;62.07
35419;BME280;21525;41.240;16.500;2023-06-22T09:38:16;101636.03;;;35.34;60.74
35419;BME280;21525;41.240;16.500;2023-06-22T09:40:42;101644.06;;;35.78;58.98
35419;BME280;21525;41.240;16.500;2023-06-22T09:43:07;101645.53;;;35.39;60.58
35419;BME280;21525;41.240;16.500;2023-06-22T09:45:33;101651.22;;;35.87;58.33
35419;BME280;21525;41.240;16.500;2023-06-22T09:47:58;101652.06;;;34.92;61.05
35419;BME280;21525;41.240;16.500;2023-06-22T09:50:24;101658.06;;;34.68;62.57
35419;BME280;21525;41.240;16.500;2023-06-22T09:52:50;101648.53;;;34.47;61.49
35419;BME280;21525;41.240;16.500;2023-06-22T09:55:23;101649.22;;;35.20;59.28
35419;BME280;21525;41.240;16.500;2023-06-22T09:57:49;101646.91;;;35.25;60.57
35419;BME280;21525;41.240;16.500;2023-06-22T10:00:16;101640.16;;;35.03;59.65
35419;BME280;21525;41.240;16.500;2023-06-22T10:02:44;101645.13;;;35.16;59.04
35419;BME280;21525;41.240;16.500;2023-06-22T10:05:10;101642.25;;;35.87;55.79
35419;BME280;21525;41.240;16.500;2023-06-22T10:07:36;101643.16;;;35.44;54.11
35419;BME280;21525;41.240;16.500;2023-06-22T10:10:05;101646.69;;;35.36;52.40
35419;BME280;21525;41.240;16.500;2023-06-22T10:12:31;101642.28;;;35.17;51.17
35419;BME280;21525;41.240;16.500;2023-06-22T10:14:57;101640.03;;;35.30;51.10
35419;BME280;21525;41.240;16.500;2023-06-22T10:17:22;101636.34;;;35.31;49.70
35419;BME280;21525;41.240;16.500;2023-06-22T10:19:48;101638.63;;;35.78;49.41
35419;BME280;21525;41.240;16.500;2023-06-22T10:22:14;101629.66;;;35.78;48.28
35419;BME280;21525;41.240;16.500;2023-06-22T10:24:39;101624.66;;;35.91;47.39
35419;BME280;21525;41.240;16.500;2023-06-22T10:27:10;101634.84;;;35.19;47.81
35419;BME280;21525;41.240;16.500;2023-06-22T10:29:36;101632.34;;;35.69;47.63
35419;BME280;21525;41.240;16.500;2023-06-22T10:32:01;101629.69;;;35.52;46.28
35419;BME280;21525;41.240;16.500;2023-06-22T10:34:27;101634.69;;;35.98;43.75
35419;BME280;21525;41.240;16.500;2023-06-22T10:36:53;101638.94;;;36.01;44.57
35419;BME280;21525;41.240;16.500;2023-06-22T10:39:18;101622.78;;;36.25;44.45
35419;BME280;21525;41.240;16.500;2023-06-22T10:41:44;101623.88;;;36.15;44.76
35419;BME280;21525;41.240;16.500;2023-06-22T10:44:10;101620.75;;;36.27;43.11
35419;BME280;21525;41.240;16.500;2023-06-22T10:46:36;101622.31;;;35.62;43.62
35419;BME280;21525;41.240;16.500;2023-06-22T10:49:03;101612.81;;;36.34;40.25
35419;BME280;21525;41.240;16.500;2023-06-22T10:51:29;101615.47;;;35.50;41.26
35419;BME280;21525;41.240;16.500;2023-06-22T10:53:54;101614.84;;;34.86;36.82
35419;BME280;21525;41.240;16.500;2023-06-22T10:56:20;101616.22;;;34.90;37.86
35419;BME280;21525;41.240;16.500;2023-06-22T10:58:45;101622.97;;;35.12;39.53
35419;BME280;21525;41.240;16.500;2023-06-22T11:01:11;101618.44;;;35.98;38.61
35419;BME280;21525;41.240;16.500;2023-06-22T11:03:37;101610.81;;;36.60;39.32
35419;BME280;21525;41.240;16.500;2023-06-22T11:06:02;101613.81;;;36.33;38.03
35419;BME280;21525;41.240;16.500;2023-06-22T11:08:28;101616.25;;;36.10;38.76
35419;BME280;21525;41.240;16.500;2023-06-22T11:10:54;101610.44;;;36.31;37.51
35419;BME280;21525;41.240;16.500;2023-06-22T11:13:19;101605.94;;;36.06;39.33
35419;BME280;21525;41.240;16.500;2023-06-22T11:15:45;101608.34;;;36.25;38.89
35419;BME280;21525;41.240;16.500;2023-06-22T11:18:10;101608.09;;;37.17;39.68
35419;BME280;21525;41.240;16.500;2023-06-22T11:20:36;101602.38;;;36.96;40.20
35419;BME280;21525;41.240;16.500;2023-06-22T11:23:04;101604.78;;;36.24;42.29
35419;BME280;21525;41.240;16.500;2023-06-22T11:25:31;101599.03;;;36.19;43.00
35419;BME280;21525;41.240;16.500;2023-06-22T11:27:57;101602.19;;;35.13;46.21
35419;BME280;21525;41.240;16.500;2023-06-22T11:30:23;101608.91;;;35.86;45.08
35419;BME280;21525;41.240;16.500;2023-06-22T11:32:48;101603.75;;;35.75;43.96
35419;BME280;21525;41.240;16.500;2023-06-22T11:35:14;101607.41;;;35.06;45.94
35419;BME280;21525;41.240;16.500;2023-06-22T11:37:39;101597.78;;;34.68;45.66
35419;BME280;21525;41.240;16.500;2023-06-22T11:40:05;101598.31;;;34.72;46.85
35419;BME280;21525;41.240;16.500;2023-06-22T11:42:34;101600.53;;;34.94;44.59
35419;BME280;21525;41.240;16.500;2023-06-22T11:44:59;101595.53;;;34.99;44.45
35419;BME280;21525;41.240;16.500;2023-06-22T11:47:25;101589.28;;;34.98;45.88
35419;BME280;21525;41.240;16.500;2023-06-22T11:49:50;101586.56;;;34.98;46.45
35419;BME280;21525;41.240;16.500;2023-06-22T11:52:16;101592.38;;;34.50;46.52
35419;BME280;21525;41.240;16.500;2023-06-22T11:54:43;101590.22;;;34.72;47.48
35419;BME280;21525;41.240;16.500;2023-06-22T11:57:08;101590.19;;;34.89;47.38
35419;BME280;21525;41.240;16.500;2023-06-22T11:59:34;101587.06;;;35.80;45.38
35419;BME280;21525;41.240;16.500;2023-06-22T12:02:00;101585.81;;;34.70;47.60
35419;BME280;21525;41.240;16.500;2023-06-22T12:04:25;101593.84;;;34.80;48.25
35419;BME280;21525;41.240;16.500;2023-06-22T12:06:51;101596.16;;;35.45;46.96
35419;BME280;21525;41.240;16.500;2023-06-22T12:09:16;101598.16;;;35.34;48.12
35419;BME280;21525;41.240;16.500;2023-06-22T12:11:42;101600.34;;;35.31;48.63
35419;BME280;21525;41.240;16.500;2023-06-22T12:14:08;101599.16;;;35.33;47.75
35419;BME280;21525;41.240;16.500;2023-06-22T12:16:33;101595.66;;;35.41;47.05
35419;BME280;21525;41.240;16.500;2023-06-22T12:18:59;101594.03;;;35.56;45.72
35419;BME280;21525;41.240;16.500;2023-06-22T12:21:24;101595.75;;;34.88;47.75
35419;BME280;21525;41.240;16.500;2023-06-22T12:23:50;101596.25;;;35.09;46.62
35419;BME280;21525;41.240;16.500;2023-06-22T12:26:16;101586.63;;;35.07;46.25
35419;BME280;21525;41.240;16.500;2023-06-22T12:28:41;101591.22;;;35.14;46.42
35419;BME280;21525;41.240;16.500;2023-06-22T12:31:07;101589.91;;;35.18;44.70
35419;BME280;21525;41.240;16.500;2023-06-22T12:33:32;101590.41;;;35.40;44.47
35419;BME280;21525;41.240;16.500;2023-06-22T12:35:58;101588.81;;;35.11;43.44
35419;BME280;21525;41.240;16.500;2023-06-22T12:38:24;101574.22;;;35.82;42.54
35419;BME280;21525;41.240;16.500;2023-06-22T12:40:50;101589.91;;;35.78;38.25